createdAt,value
2022-11-17T00:01:55.037Z,5.40
2022-11-17T00:04:22.104Z,5.27
2022-11-17T00:06:48.619Z,5.30
2022-11-17T00:09:17.646Z,5.23
2022-11-17T00:12:04.116Z,8.90
2022-11-17T00:14:33.548Z,5.77
2022-11-17T00:17:05.846Z,6.33
2022-11-17T00:19:51.243Z,5.50
2022-11-17T00:22:18.017Z,6.73
2022-11-17T00:24:44.674Z,7.40
2022-11-17T00:27:11.606Z,8.13
2022-11-17T00:29:39.399Z,6.73
2022-11-17T00:32:29.967Z,6.10
2022-11-17T00:34:56.517Z,6.47
2022-11-17T00:37:23.631Z,6.40
2022-11-17T00:39:50.164Z,7.20
2022-11-17T00:42:16.667Z,8.30
2022-11-17T00:44:43.158Z,8.07
2022-11-17T00:47:10.976Z,6.80
2022-11-17T00:49:37.469Z,6.60
2022-11-17T00:52:04.243Z,7.60
2022-11-17T00:54:30.771Z,6.80
2022-11-17T00:56:57.344Z,7.07
2022-11-17T00:59:23.960Z,7.80
2022-11-17T01:01:50.554Z,7.70
2022-11-17T01:04:17.140Z,8.37
2022-11-17T01:06:48.588Z,7.07
2022-11-17T01:09:21.120Z,8.30
2022-11-17T01:11:49.804Z,7.77
2022-11-17T01:14:20.461Z,6.97
2022-11-17T01:16:47.358Z,7.10
2022-11-17T01:19:15.198Z,9.00
2022-11-17T01:21:41.923Z,7.20
2022-11-17T01:24:11.386Z,8.60
2022-11-17T01:26:39.395Z,8.83
2022-11-17T01:29:07.216Z,7.90
2022-11-17T01:31:37.552Z,8.40
2022-11-17T01:34:04.700Z,8.20
2022-11-17T01:36:56.112Z,8.03
2022-11-17T01:39:27.388Z,8.53
2022-11-17T01:41:55.227Z,7.77
2022-11-17T01:44:54.718Z,8.40
2022-11-17T01:47:33.205Z,10.43
2022-11-17T01:50:06.174Z,8.07
2022-11-17T01:52:35.054Z,8.70
2022-11-17T01:55:03.492Z,8.03
2022-11-17T01:57:35.609Z,7.97
2022-11-17T02:00:07.795Z,8.43
2022-11-17T02:02:38.342Z,8.50
2022-11-17T02:05:14.204Z,10.97
2022-11-17T02:07:43.144Z,8.60
2022-11-17T02:10:10.115Z,8.37
2022-11-17T02:12:37.094Z,10.27
2022-11-17T02:15:05.599Z,9.20
2022-11-17T02:17:38.140Z,8.53
2022-11-17T02:20:36.967Z,8.37
2022-11-17T02:23:32.162Z,8.77
2022-11-17T02:26:17.517Z,8.73
2022-11-17T02:29:09.664Z,9.60
2022-11-17T02:31:38.912Z,8.50
2022-11-17T02:34:34.464Z,10.23
2022-11-17T02:37:20.764Z,10.00
2022-11-17T02:39:50.438Z,9.93
2022-11-17T02:42:45.989Z,11.37
2022-11-17T02:45:28.406Z,8.73
2022-11-17T02:47:58.472Z,9.20
2022-11-17T02:50:28.580Z,9.37
2022-11-17T02:52:56.377Z,8.97
2022-11-17T02:55:22.902Z,8.93
2022-11-17T02:57:49.857Z,9.97
2022-11-17T03:00:18.845Z,9.47
2022-11-17T03:03:16.378Z,9.47
2022-11-17T03:06:11.382Z,8.90
2022-11-17T03:09:16.168Z,8.93
2022-11-17T03:11:52.693Z,8.50
2022-11-17T03:14:37.149Z,9.17
2022-11-17T03:17:18.624Z,9.87
2022-11-17T03:19:54.758Z,9.50
2022-11-17T03:22:32.829Z,9.10
2022-11-17T03:25:05.157Z,9.33
2022-11-17T03:27:40.273Z,10.27
2022-11-17T03:30:09.116Z,8.57
2022-11-17T03:32:38.939Z,8.70
2022-11-17T03:35:10.146Z,8.73
2022-11-17T03:37:42.078Z,7.97
2022-11-17T03:40:11.402Z,10.73
2022-11-17T03:42:42.241Z,9.27
2022-11-17T03:45:36.974Z,8.57
2022-11-17T03:48:20.393Z,8.77
2022-11-17T03:51:06.572Z,9.13
2022-11-17T03:53:35.578Z,8.83
2022-11-17T03:56:02.255Z,8.73
2022-11-17T03:58:33.413Z,8.67
2022-11-17T04:01:03.413Z,8.60
2022-11-17T04:03:40.034Z,8.03
2022-11-17T04:06:06.776Z,8.27
2022-11-17T04:08:33.265Z,10.53
2022-11-17T04:11:18.447Z,8.83
2022-11-17T04:14:03.582Z,8.03
2022-11-17T04:16:30.144Z,8.23
2022-11-17T04:18:58.869Z,8.23
2022-11-17T04:21:26.012Z,9.07
2022-11-17T04:23:52.596Z,8.20
2022-11-17T04:26:37.726Z,9.83
2022-11-17T04:29:07.044Z,8.23
2022-11-17T04:31:33.907Z,7.77
2022-11-17T04:34:05.936Z,8.30
2022-11-17T04:36:40.768Z,9.90
2022-11-17T04:39:07.309Z,10.97
2022-11-17T04:41:53.822Z,8.20
2022-11-17T04:44:23.416Z,8.03
2022-11-17T04:46:50.089Z,10.10
2022-11-17T04:49:18.416Z,8.77
2022-11-17T04:51:45.490Z,8.50
2022-11-17T04:54:14.176Z,8.50
2022-11-17T04:56:41.240Z,8.57
2022-11-17T04:59:08.328Z,9.20
2022-11-17T05:01:35.693Z,8.60
2022-11-17T05:04:06.944Z,8.57
2022-11-17T05:06:35.285Z,8.13
2022-11-17T05:09:06.423Z,8.57
2022-11-17T05:11:51.501Z,9.27
2022-11-17T05:14:20.796Z,9.10
2022-11-17T05:17:10.028Z,9.90
2022-11-17T05:19:42.575Z,10.10
2022-11-17T05:22:29.333Z,8.70
2022-11-17T05:24:56.201Z,9.40
2022-11-17T05:27:24.317Z,9.47
2022-11-17T05:29:51.636Z,9.13
2022-11-17T05:32:18.681Z,11.17
2022-11-17T05:34:45.582Z,9.90
2022-11-17T05:37:12.374Z,9.30
2022-11-17T05:39:38.915Z,15.60
2022-11-17T05:42:05.791Z,9.43
2022-11-17T05:44:32.331Z,10.20
2022-11-17T05:46:59.351Z,11.37
2022-11-17T05:49:25.849Z,9.53
2022-11-17T05:51:53.105Z,10.03
2022-11-17T05:54:20.308Z,10.23
2022-11-17T05:56:53.383Z,10.60
2022-11-17T05:59:46.932Z,10.80
2022-11-17T06:02:21.475Z,13.37
2022-11-17T06:04:50.096Z,11.43
2022-11-17T06:07:18.031Z,10.90
2022-11-17T06:09:46.084Z,11.23
2022-11-17T06:12:12.708Z,11.97
2022-11-17T06:14:42.558Z,12.27
2022-11-17T06:17:22.852Z,10.63
2022-11-17T06:19:55.490Z,10.97
2022-11-17T06:22:22.355Z,10.83
2022-11-17T06:24:48.954Z,11.43
2022-11-17T06:27:17.240Z,10.73
2022-11-17T06:29:45.425Z,11.57
2022-11-17T06:32:14.331Z,12.57
2022-11-17T06:34:42.682Z,11.23
2022-11-17T06:37:09.275Z,11.50
2022-11-17T06:39:35.822Z,11.87
2022-11-17T06:42:02.396Z,13.23
2022-11-17T06:44:28.932Z,13.87
2022-11-17T06:46:55.431Z,12.80
2022-11-17T06:49:22.030Z,12.47
2022-11-17T06:51:48.592Z,14.50
2022-11-17T06:54:15.161Z,12.67
2022-11-17T06:56:42.228Z,15.63
2022-11-17T06:59:08.759Z,11.33
2022-11-17T07:01:36.526Z,11.07
2022-11-17T07:04:03.372Z,12.20
2022-11-17T07:06:30.000Z,23.93
2022-11-17T07:08:56.523Z,11.57
2022-11-17T07:11:23.065Z,12.20
2022-11-17T07:13:49.666Z,12.33
2022-11-17T07:16:23.505Z,12.53
2022-11-17T07:18:51.048Z,12.53
2022-11-17T07:21:18.138Z,13.03
2022-11-17T07:23:45.894Z,12.23
2022-11-17T07:26:12.933Z,14.63
2022-11-17T07:28:39.601Z,13.17
2022-11-17T07:31:07.914Z,13.20
2022-11-17T07:33:34.817Z,12.33
2022-11-17T07:36:07.027Z,12.73
2022-11-17T07:38:35.453Z,11.97
2022-11-17T07:41:04.015Z,12.50
2022-11-17T07:43:30.787Z,13.20
2022-11-17T07:45:57.429Z,15.37
2022-11-17T07:48:24.071Z,12.03
2022-11-17T07:50:50.835Z,13.97
2022-11-17T07:53:17.388Z,13.10
2022-11-17T07:55:43.952Z,12.07
2022-11-17T07:58:10.489Z,12.17
2022-11-17T08:00:37.192Z,12.33
2022-11-17T08:03:04.838Z,12.03
2022-11-17T08:05:39.944Z,11.87
2022-11-17T08:08:09.999Z,18.30
2022-11-17T08:10:37.091Z,13.27
2022-11-17T08:13:03.747Z,14.33
2022-11-17T08:15:31.234Z,15.93
2022-11-17T08:18:00.162Z,12.13
2022-11-17T08:20:29.305Z,19.23
2022-11-17T08:22:56.542Z,13.10
2022-11-17T08:29:09.808Z,11.83
2022-11-17T08:31:36.501Z,11.37
2022-11-17T08:34:03.015Z,12.10
2022-11-17T08:36:29.609Z,11.70
2022-11-17T08:38:56.109Z,12.23
2022-11-17T08:41:22.732Z,44.50
2022-11-17T08:43:50.777Z,12.23
2022-11-17T08:46:17.309Z,11.20
2022-11-17T08:48:43.851Z,12.90
2022-11-17T08:51:13.944Z,12.50
2022-11-17T08:53:40.627Z,14.67
2022-11-17T08:56:08.613Z,11.83
2022-11-17T08:58:43.311Z,11.20
2022-11-17T09:01:11.401Z,13.03
2022-11-17T09:03:38.050Z,10.80
2022-11-17T09:06:05.835Z,12.87
2022-11-17T09:08:47.924Z,11.53
2022-11-17T09:11:16.721Z,12.17
2022-11-17T09:13:45.662Z,12.73
2022-11-17T09:16:13.712Z,14.93
2022-11-17T09:18:41.147Z,11.87
2022-11-17T09:21:10.615Z,14.93
2022-11-17T09:23:37.588Z,12.07
2022-11-17T09:26:10.560Z,12.33
2022-11-17T09:28:37.586Z,12.10
2022-11-17T09:31:09.365Z,12.87
2022-11-17T09:33:36.577Z,13.77
2022-11-17T09:36:10.135Z,12.83
2022-11-17T09:38:38.091Z,12.77
2022-11-17T09:41:21.365Z,13.33
2022-11-17T09:44:08.147Z,12.40
2022-11-17T09:47:07.005Z,14.73
2022-11-17T09:49:56.982Z,13.97
2022-11-17T09:52:49.122Z,12.97
2022-11-17T09:55:15.682Z,14.87
2022-11-17T09:57:45.526Z,14.40
2022-11-17T10:00:20.195Z,13.10
2022-11-17T10:02:47.814Z,15.30
2022-11-17T10:05:16.462Z,12.40
2022-11-17T10:07:50.498Z,15.97
2022-11-17T10:10:22.637Z,13.60
2022-11-17T10:12:56.251Z,14.00
2022-11-17T10:15:41.192Z,13.50
2022-11-17T10:18:14.277Z,13.83
2022-11-17T10:20:42.483Z,14.63
2022-11-17T10:23:20.117Z,15.63
2022-11-17T10:25:48.538Z,15.30
2022-11-17T10:28:28.830Z,15.60
2022-11-17T10:31:10.955Z,17.20
2022-11-17T10:33:39.508Z,13.57
2022-11-17T10:36:28.876Z,14.17
2022-11-17T10:38:57.574Z,14.67
2022-11-17T10:41:28.916Z,14.37
2022-11-17T10:44:18.210Z,14.57
2022-11-17T10:46:58.935Z,15.37
2022-11-17T10:49:33.232Z,15.17
2022-11-17T10:52:08.821Z,17.00
2022-11-17T10:54:35.393Z,16.33
2022-11-17T10:57:05.268Z,15.83
2022-11-17T10:59:41.360Z,15.17
2022-11-17T11:02:19.999Z,18.13
2022-11-17T11:04:46.532Z,22.43
2022-11-17T11:07:23.846Z,15.60
2022-11-17T11:09:56.212Z,15.53
2022-11-17T11:12:33.499Z,18.50
2022-11-17T11:15:01.403Z,16.90
2022-11-17T11:17:29.760Z,15.00
2022-11-17T11:19:56.529Z,15.63
2022-11-17T11:22:23.068Z,15.77
2022-11-17T11:25:11.146Z,14.30
2022-11-17T11:27:46.947Z,16.03
2022-11-17T11:30:16.821Z,15.53
2022-11-17T11:33:17.893Z,16.97
2022-11-17T11:36:03.282Z,15.80
2022-11-17T11:38:45.118Z,16.30
2022-11-17T11:41:30.334Z,19.70
2022-11-17T11:44:14.017Z,18.63
2022-11-17T11:47:05.005Z,15.00
2022-11-17T11:49:40.586Z,19.03
2022-11-17T11:52:16.187Z,17.40
2022-11-17T11:54:51.205Z,18.33
2022-11-17T11:57:24.053Z,16.03
2022-11-17T12:00:04.486Z,17.63
2022-11-17T12:02:45.382Z,15.13
2022-11-17T12:05:23.981Z,15.27
2022-11-17T12:08:25.565Z,17.13
2022-11-17T12:11:00.651Z,16.87
2022-11-17T12:13:27.520Z,16.83
2022-11-17T12:16:17.373Z,16.63
2022-11-17T12:18:43.930Z,14.33
2022-11-17T12:21:13.816Z,15.57
2022-11-17T12:23:40.278Z,17.17
2022-11-17T12:26:07.363Z,14.87
2022-11-17T12:28:41.427Z,14.53
2022-11-17T12:31:32.070Z,14.43
2022-11-17T12:34:01.535Z,15.73
2022-11-17T12:36:31.582Z,14.67
2022-11-17T12:39:03.724Z,14.73
2022-11-17T12:41:48.301Z,16.27
2022-11-17T12:44:43.587Z,14.20
2022-11-17T12:47:17.300Z,14.70
2022-11-17T12:50:24.095Z,15.47
2022-11-17T12:53:05.640Z,16.27
2022-11-17T12:55:34.902Z,15.37
2022-11-17T12:58:18.948Z,16.90
2022-11-17T13:01:02.174Z,16.93
2022-11-17T13:03:43.008Z,17.70
2022-11-17T13:09:07.687Z,16.60
2022-11-17T13:11:34.686Z,16.23
2022-11-17T13:14:16.115Z,15.73
2022-11-17T13:16:50.588Z,16.47
2022-11-17T13:19:35.354Z,16.00
2022-11-17T13:22:14.941Z,15.93
2022-11-17T13:24:44.766Z,17.80
2022-11-17T13:27:18.697Z,15.07
2022-11-17T13:29:45.409Z,16.83
2022-11-17T13:32:14.973Z,16.83
2022-11-17T13:34:53.787Z,16.93
2022-11-17T13:37:27.251Z,17.50
2022-11-17T13:39:57.608Z,16.23
2022-11-17T13:42:27.046Z,17.50
2022-11-17T13:44:56.149Z,18.10
2022-11-17T13:47:37.744Z,17.67
2022-11-17T13:50:26.137Z,15.83
2022-11-17T13:53:12.471Z,14.17
2022-11-17T13:55:48.387Z,15.97
2022-11-17T13:58:26.893Z,18.87
2022-11-17T14:00:58.661Z,15.70
2022-11-17T14:03:35.835Z,14.43
2022-11-17T14:06:04.878Z,15.97
2022-11-17T14:08:32.949Z,16.90
2022-11-17T14:11:14.818Z,17.77
2022-11-17T14:14:01.015Z,15.53
2022-11-17T14:16:28.981Z,17.27
2022-11-17T14:19:21.089Z,18.03
2022-11-17T14:22:31.042Z,16.83
2022-11-17T14:24:58.437Z,17.30
2022-11-17T14:27:27.768Z,17.40
2022-11-17T14:29:54.301Z,15.87
2022-11-17T14:32:21.403Z,18.37
2022-11-17T14:34:47.945Z,17.20
2022-11-17T14:37:14.600Z,17.63
2022-11-17T14:39:41.116Z,18.53
2022-11-17T14:42:09.635Z,16.10
2022-11-17T14:44:36.151Z,14.93
2022-11-17T14:47:03.327Z,15.83
2022-11-17T14:49:29.907Z,16.50
2022-11-17T14:51:59.103Z,17.70
2022-11-17T14:54:26.330Z,14.93
2022-11-17T14:56:52.843Z,17.17
2022-11-17T14:59:19.583Z,16.97
2022-11-17T15:01:46.135Z,19.30
2022-11-17T15:04:35.114Z,16.57
2022-11-17T15:07:01.304Z,16.13
2022-11-17T15:09:28.039Z,16.83
2022-11-17T15:11:54.529Z,16.80
2022-11-17T15:14:21.280Z,17.20
2022-11-17T15:16:47.778Z,19.43
2022-11-17T15:19:14.427Z,18.30
2022-11-17T15:21:41.036Z,19.43
2022-11-17T15:24:09.241Z,17.63
2022-11-17T15:26:35.845Z,17.30
2022-11-17T15:29:02.514Z,18.30
2022-11-17T15:31:29.176Z,15.70
2022-11-17T15:33:55.964Z,16.60
2022-11-17T15:36:23.134Z,18.60
2022-11-17T15:38:50.066Z,16.70
2022-11-17T15:41:17.076Z,16.80
2022-11-17T15:43:44.747Z,17.43
2022-11-17T15:46:13.875Z,14.50
2022-11-17T15:48:43.226Z,17.00
2022-11-17T15:51:21.715Z,16.30
2022-11-17T15:53:49.892Z,18.30
2022-11-17T15:56:28.219Z,15.27
2022-11-17T15:59:01.652Z,16.10
2022-11-17T16:01:30.207Z,15.37
2022-11-17T16:04:05.695Z,16.43
2022-11-17T16:06:34.464Z,15.67
2022-11-17T16:09:01.159Z,16.43
2022-11-17T16:11:28.056Z,15.67
2022-11-17T16:13:56.150Z,17.13
2022-11-17T16:16:25.197Z,15.10
2022-11-17T16:18:51.797Z,15.43
2022-11-17T16:21:18.373Z,15.20
2022-11-17T16:23:56.071Z,15.90
2022-11-17T16:26:25.152Z,14.93
2022-11-17T16:29:04.288Z,20.20
2022-11-17T16:31:33.002Z,14.00
2022-11-17T16:34:05.273Z,14.07
2022-11-17T16:36:36.913Z,17.00
2022-11-17T16:39:05.623Z,16.60
2022-11-17T16:41:38.257Z,15.20
2022-11-17T16:44:11.785Z,15.93
2022-11-17T16:46:41.268Z,14.73
2022-11-17T16:49:11.513Z,16.27
2022-11-17T16:51:38.729Z,14.70
2022-11-17T16:54:08.244Z,15.20
2022-11-17T16:56:34.817Z,16.53
2022-11-17T16:59:01.372Z,13.87
2022-11-17T17:01:30.531Z,15.83
2022-11-17T17:03:58.906Z,16.30
2022-11-17T17:06:26.141Z,14.03
2022-11-17T17:09:12.683Z,15.50
2022-11-17T17:11:39.688Z,16.47
2022-11-17T17:14:08.934Z,14.77
2022-11-17T17:16:37.122Z,15.43
2022-11-17T17:19:05.900Z,13.27
2022-11-17T17:21:33.142Z,14.03
2022-11-17T17:23:59.931Z,14.03
2022-11-17T17:26:29.132Z,13.70
2022-11-17T17:28:57.966Z,14.50
2022-11-17T17:31:25.943Z,13.60
2022-11-17T17:33:52.961Z,14.17
2022-11-17T17:36:24.800Z,13.80
2022-11-17T17:38:56.100Z,13.93
2022-11-17T17:41:29.296Z,14.83
2022-11-17T17:43:58.578Z,13.50
2022-11-17T17:46:25.923Z,15.63
2022-11-17T17:48:52.623Z,15.17
2022-11-17T17:51:21.476Z,14.00
2022-11-17T17:53:50.183Z,15.57
2022-11-17T17:56:19.096Z,15.00
2022-11-17T17:58:46.905Z,16.10
2022-11-17T18:01:17.951Z,17.47
2022-11-17T18:03:47.965Z,16.80
2022-11-17T18:06:19.677Z,15.93
2022-11-17T18:08:47.028Z,14.80
2022-11-17T18:11:17.018Z,15.10
2022-11-17T18:13:45.775Z,14.57
2022-11-17T18:16:18.365Z,14.50
2022-11-17T18:18:46.187Z,15.17
2022-11-17T18:21:18.526Z,15.07
2022-11-17T18:23:45.773Z,14.77
2022-11-17T18:26:19.678Z,15.20
2022-11-17T18:28:54.672Z,13.67
2022-11-17T18:31:22.550Z,15.13
2022-11-17T18:34:13.434Z,15.93
2022-11-17T18:36:40.007Z,14.83
2022-11-17T18:39:06.677Z,14.70
2022-11-17T18:41:34.105Z,15.63
2022-11-17T18:44:01.465Z,14.57
2022-11-17T18:46:30.590Z,14.07
2022-11-17T18:48:58.332Z,17.17
2022-11-17T18:51:29.587Z,15.40
2022-11-17T18:53:58.225Z,15.90
2022-11-17T18:56:27.036Z,15.63
2022-11-17T18:58:53.634Z,15.20
2022-11-17T19:01:22.938Z,14.73
2022-11-17T19:03:54.171Z,15.60
2022-11-17T19:06:22.952Z,16.70
2022-11-17T19:08:50.081Z,14.23
2022-11-17T19:11:20.061Z,14.83
2022-11-17T19:13:47.198Z,17.33
2022-11-17T19:16:25.160Z,15.70
2022-11-17T19:18:54.027Z,15.50
2022-11-17T19:21:26.737Z,17.17
2022-11-17T19:23:56.763Z,16.50
2022-11-17T19:26:29.069Z,16.47
2022-11-17T19:28:57.591Z,16.50
2022-11-17T19:31:25.442Z,15.43
2022-11-17T19:33:55.630Z,16.63
2022-11-17T19:36:27.862Z,18.20
2022-11-17T19:38:56.571Z,16.83
2022-11-17T19:41:26.173Z,18.63
2022-11-17T19:43:54.250Z,17.13
2022-11-17T19:46:26.465Z,15.77
2022-11-17T19:48:53.415Z,15.63
2022-11-17T19:51:25.631Z,15.80
2022-11-17T19:53:54.532Z,17.67
2022-11-17T19:56:22.834Z,16.63
2022-11-17T19:58:50.584Z,15.90
2022-11-17T20:01:23.212Z,17.73
2022-11-17T20:03:52.692Z,15.70
2022-11-17T20:06:22.201Z,14.43
2022-11-17T20:08:49.936Z,14.10
2022-11-17T20:11:27.819Z,14.60
2022-11-17T20:13:55.964Z,14.10
2022-11-17T20:16:25.434Z,13.33
2022-11-17T20:18:59.514Z,13.73
2022-11-17T20:21:27.942Z,13.13
2022-11-17T20:23:55.443Z,14.67
2022-11-17T20:26:24.730Z,13.00
2022-11-17T20:28:52.600Z,13.70
2022-11-17T20:31:24.893Z,13.50
2022-11-17T20:33:53.887Z,14.93
2022-11-17T20:36:23.518Z,12.80
2022-11-17T20:38:55.117Z,13.03
2022-11-17T20:41:25.756Z,12.77
2022-11-17T20:43:54.198Z,14.37
2022-11-17T20:46:21.875Z,13.63
2022-11-17T20:48:48.868Z,14.47
2022-11-17T20:51:18.411Z,14.67
2022-11-17T20:53:45.216Z,12.63
2022-11-17T20:56:13.236Z,14.40
2022-11-17T20:58:40.191Z,12.83
2022-11-17T21:01:15.140Z,14.40
2022-11-17T21:03:42.482Z,14.30
2022-11-17T21:06:09.455Z,16.00
2022-11-17T21:08:38.076Z,16.50
2022-11-17T21:11:07.957Z,15.87
2022-11-17T21:13:36.425Z,13.87
2022-11-17T21:16:14.534Z,15.13
2022-11-17T21:18:48.387Z,16.27
2022-11-17T21:21:15.893Z,14.37
2022-11-17T21:23:43.943Z,17.00
2022-11-17T21:26:17.159Z,14.37
2022-11-17T21:28:43.931Z,14.90
2022-11-17T21:31:15.624Z,15.13
2022-11-17T21:33:42.872Z,15.07
2022-11-17T21:36:17.368Z,14.50
2022-11-17T21:38:45.245Z,14.80
2022-11-17T21:41:14.185Z,14.00
2022-11-17T21:43:42.359Z,17.03
2022-11-17T21:46:11.686Z,14.13
2022-11-17T21:48:38.364Z,16.73
2022-11-17T21:51:06.792Z,14.70
2022-11-17T21:53:34.008Z,14.87
2022-11-17T21:56:05.578Z,15.87
2022-11-17T21:58:32.797Z,14.90
2022-11-17T22:01:05.252Z,15.83
2022-11-17T22:03:31.844Z,16.03
2022-11-17T22:06:09.168Z,16.67
2022-11-17T22:08:38.432Z,16.30
2022-11-17T22:11:16.305Z,18.53
2022-11-17T22:13:42.976Z,16.47
2022-11-17T22:16:12.606Z,17.33
2022-11-17T22:18:39.940Z,18.23
2022-11-17T22:21:07.676Z,18.83
2022-11-17T22:23:34.640Z,16.63
2022-11-17T22:26:04.941Z,19.50
2022-11-17T22:28:31.747Z,18.67
2022-11-17T22:30:58.525Z,19.57
2022-11-17T22:33:25.074Z,18.73
2022-11-17T22:35:51.715Z,20.13
2022-11-17T22:38:18.322Z,19.67
2022-11-17T22:40:44.897Z,20.63
2022-11-17T22:43:14.919Z,19.87
2022-11-17T22:45:41.718Z,19.73
2022-11-17T22:48:08.987Z,21.97
2022-11-17T22:50:36.004Z,23.07
2022-11-17T22:53:02.801Z,21.37
2022-11-17T22:55:29.457Z,21.80
2022-11-17T22:57:55.986Z,21.60
2022-11-17T23:00:22.950Z,23.30
2022-11-17T23:02:49.593Z,21.80
2022-11-17T23:05:16.761Z,22.03
2022-11-17T23:07:43.478Z,21.40
2022-11-17T23:10:10.751Z,21.37
2022-11-17T23:12:37.304Z,21.43
2022-11-17T23:15:04.565Z,20.80
2022-11-17T23:17:31.049Z,21.77
2022-11-17T23:19:57.610Z,19.07
2022-11-17T23:22:24.118Z,20.50
2022-11-17T23:24:50.637Z,21.37
2022-11-17T23:27:17.280Z,24.60
2022-11-17T23:29:43.808Z,20.03
2022-11-17T23:32:10.693Z,20.43
2022-11-17T23:34:37.286Z,21.83
2022-11-17T23:37:04.259Z,21.23
2022-11-17T23:39:30.805Z,22.80
2022-11-17T23:41:57.302Z,21.00
2022-11-17T23:44:23.848Z,21.03
2022-11-17T23:46:50.388Z,19.77
2022-11-17T23:49:17.064Z,22.03
2022-11-17T23:51:43.662Z,23.13
2022-11-17T23:54:13.839Z,20.20
2022-11-17T23:56:41.054Z,21.90
2022-11-17T23:59:08.308Z,20.83
